Time;durP1;ratioP1;P1;durP2;ratioP2;P2;SDS_P1;SDS_P2;PMS_P1;PMS_P2;Temp;Humidity;BMP_temperature;BMP_pressure;BME280_temperature;BME280_humidity;BME280_pressure;Samples;Min_cycle;Max_cycle;Signal;HPM_P1;HPM_P2
2022/03/01 00:00:47;;;;;;;4.70;2.88;;;;;;;-1.27;75.77;95317.72;5043438;28;20222;-78
2022/03/01 00:03:15;;;;;;;3.13;2.17;;;;;;;-1.36;76.17;95318.31;5053436;28;20215;-78
2022/03/01 00:05:43;;;;;;;2.47;1.08;;;;;;;-1.20;75.98;95317.56;5041461;28;20651;-79
2022/03/01 00:08:13;;;;;;;5.13;2.72;;;;;;;-1.31;77.20;95311.25;5037987;28;20243;-79
2022/03/01 00:10:40;;;;;;;3.55;1.73;;;;;;;-1.32;77.26;95303.50;5053359;28;20207;-79
2022/03/01 00:13:07;;;;;;;3.40;1.48;;;;;;;-1.25;76.04;95304.19;5033527;28;20208;-79
2022/03/01 00:15:34;;;;;;;4.07;2.55;;;;;;;-1.36;76.92;95318.31;5031155;28;20211;-79
2022/03/01 00:18:01;;;;;;;3.05;1.83;;;;;;;-1.40;76.07;95306.56;5030908;28;20239;-79
2022/03/01 00:20:29;;;;;;;2.95;2.00;;;;;;;-1.51;77.63;95301.03;5030606;28;20228;-78
2022/03/01 00:22:56;;;;;;;2.70;1.42;;;;;;;-1.48;78.12;95308.53;5045654;28;20197;-78
2022/03/01 00:25:24;;;;;;;7.40;2.05;;;;;;;-1.48;77.76;95300.56;5030930;28;20239;-78
2022/03/01 00:27:51;;;;;;;1.58;1.33;;;;;;;-1.51;78.38;95295.72;5051856;28;20237;-78
2022/03/01 00:30:17;;;;;;;4.47;2.30;;;;;;;-1.53;78.62;95292.50;5038101;28;20258;-79
2022/03/01 00:32:44;;;;;;;2.65;1.85;;;;;;;-1.57;79.26;95294.00;5031233;28;20224;-80
2022/03/01 00:35:11;;;;;;;2.92;1.60;;;;;;;-1.69;78.83;95282.59;5030990;28;20204;-80
2022/03/01 00:37:39;;;;;;;2.65;1.13;;;;;;;-1.52;76.81;95288.81;5031514;28;20239;-78
2022/03/01 00:40:07;;;;;;;4.85;1.83;;;;;;;-1.75;78.54;95278.22;5033144;28;20211;-80
2022/03/01 00:42:35;;;;;;;2.78;1.52;;;;;;;-1.81;77.14;95284.50;5051564;28;20223;-79
2022/03/01 00:45:02;;;;;;;4.40;2.22;;;;;;;-1.87;79.11;95288.06;5035545;28;20204;-79
2022/03/01 00:47:29;;;;;;;4.28;2.22;;;;;;;-2.10;80.47;95282.78;5031164;28;20618;-79
2022/03/01 00:49:57;;;;;;;3.55;2.28;;;;;;;-2.13;81.30;95280.59;5031366;28;20291;-79
2022/03/01 00:52:24;;;;;;;2.75;2.13;;;;;;;-2.04;80.71;95273.88;5030848;28;20227;-78
2022/03/01 00:54:53;;;;;;;4.18;2.45;;;;;;;-2.01;81.37;95271.59;5033762;28;20212;-79
2022/03/01 00:57:20;;;;;;;5.07;2.80;;;;;;;-1.92;81.54;95266.75;5041652;28;20294;-79
2022/03/01 00:59:48;;;;;;;6.22;3.58;;;;;;;-1.88;81.65;95268.66;5031051;28;20211;-79
2022/03/01 01:02:15;;;;;;;5.65;2.42;;;;;;;-1.89;81.79;95261.75;5031038;28;20212;-79
2022/03/01 01:04:42;;;;;;;3.13;2.00;;;;;;;-2.03;81.40;95272.84;5048757;28;20224;-79
2022/03/01 01:07:09;;;;;;;3.10;2.17;;;;;;;-2.24;81.54;95268.97;5041274;28;20212;-78
2022/03/01 01:09:36;;;;;;;3.25;2.17;;;;;;;-2.23;81.51;95271.38;5045248;28;20250;-79
2022/03/01 01:12:05;;;;;;;4.28;2.15;;;;;;;-2.35;82.01;95259.97;5042334;28;20758;-79
2022/03/01 01:14:33;;;;;;;3.83;1.90;;;;;;;-2.31;81.71;95274.38;5051716;28;20264;-79
2022/03/01 01:17:00;;;;;;;5.75;1.85;;;;;;;-2.30;81.54;95276.00;5040359;28;20263;-78
2022/03/01 01:19:28;;;;;;;3.03;2.15;;;;;;;-2.31;80.67;95263.75;5031955;28;20229;-78
2022/03/01 01:24:44;;;;;;;2.75;1.55;;;;;;;-2.20;81.45;95270.13;5051550;28;20199;-78
2022/03/01 01:27:12;;;;;;;2.97;1.90;;;;;;;-2.42;81.16;95267.22;5049882;28;20231;-78
2022/03/01 01:29:40;;;;;;;2.20;1.50;;;;;;;-2.57;82.33;95264.22;5032337;28;20217;-78
2022/03/01 01:32:09;;;;;;;2.10;1.50;;;;;;;-2.61;82.49;95263.91;5034347;28;20311;-78
2022/03/01 01:34:36;;;;;;;2.20;1.65;;;;;;;-2.56;83.25;95255.22;5051539;28;20215;-78
2022/03/01 01:37:06;;;;;;;4.72;2.58;;;;;;;-2.36;81.56;95261.00;5038383;28;20718;-78
2022/03/01 01:39:33;;;;;;;2.78;1.75;;;;;;;-2.40;81.48;95262.50;5051692;28;20219;-78
2022/03/01 01:42:00;;;;;;;3.63;1.80;;;;;;;-2.28;82.48;95251.88;5047103;28;20540;-78
2022/03/01 01:44:30;;;;;;;1.88;1.40;;;;;;;-2.16;81.78;95250.84;5030814;28;20208;-78
2022/03/01 01:46:57;;;;;;;1.77;1.63;;;;;;;-2.09;81.83;95244.59;5031651;28;20204;-78
2022/03/01 01:49:27;;;;;;;2.53;2.08;;;;;;;-2.07;80.13;95251.28;5042959;28;20204;-78
2022/03/01 01:51:55;;;;;;;3.20;2.10;;;;;;;-2.22;80.92;95251.78;5051899;28;20578;-78
2022/03/01 01:54:22;;;;;;;3.53;2.17;;;;;;;-2.29;81.33;95242.31;5051584;28;20230;-78
2022/03/01 01:56:49;;;;;;;6.80;2.42;;;;;;;-2.40;81.74;95246.59;5035337;28;20761;-78
2022/03/01 01:59:16;;;;;;;2.42;1.90;;;;;;;-2.49;81.72;95234.72;5035532;28;20213;-78
2022/03/01 02:01:48;;;;;;;2.65;1.83;;;;;;;-2.50;82.10;95254.31;5055243;28;20203;-78
2022/03/01 02:04:15;;;;;;;4.30;2.15;;;;;;;-2.61;82.71;95241.88;5054959;28;20597;-78
2022/03/01 02:06:50;;;;;;;4.95;2.22;;;;;;;-2.70;82.50;95237.94;5035930;28;20564;-77
2022/03/01 02:09:20;;;;;;;2.20;1.60;;;;;;;-2.68;81.94;95235.88;5036130;28;20207;-77
2022/03/01 02:11:48;;;;;;;3.35;1.95;;;;;;;-2.61;81.47;95237.38;5035167;28;20200;-77
2022/03/01 02:14:15;;;;;;;4.50;2.65;;;;;;;-2.70;82.56;95227.34;5049507;28;20250;-77
2022/03/01 02:16:47;;;;;;;4.22;1.58;;;;;;;-2.59;81.83;95234.47;5036505;28;20239;-77
2022/03/01 02:19:14;;;;;;;3.10;2.00;;;;;;;-2.66;82.49;95223.19;5049412;28;20232;-76
2022/03/01 02:21:50;;;;;;;7.78;1.83;;;;;;;-2.62;81.47;95216.41;5045367;28;20219;-77
2022/03/01 02:24:17;;;;;;;3.47;1.77;;;;;;;-2.52;80.93;95213.97;5038097;28;20206;-76
2022/03/01 02:26:44;;;;;;;2.28;1.30;;;;;;;-2.52;80.81;95208.66;5046111;28;20330;-76
2022/03/01 02:29:12;;;;;;;2.78;1.15;;;;;;;-2.39;79.22;95202.31;5042759;28;20206;-77
2022/03/01 02:31:39;;;;;;;2.75;2.17;;;;;;;-2.76;79.14;95201.75;5055616;28;20238;-75
2022/03/01 02:34:06;;;;;;;2.75;1.83;;;;;;;-2.74;81.98;95197.03;5051373;28;20204;-77
2022/03/01 02:36:33;;;;;;;3.13;2.10;;;;;;;-2.82;82.41;95197.38;5035449;28;20616;-78
2022/03/01 02:39:02;;;;;;;2.78;1.60;;;;;;;-2.55;80.51;95201.16;5052521;28;20207;-77
2022/03/01 02:41:38;;;;;;;3.08;1.77;;;;;;;-2.91;81.73;95200.38;5054510;28;20207;-77
2022/03/01 02:44:05;;;;;;;3.30;1.80;;;;;;;-2.93;82.14;95199.78;5033502;28;20655;-76
2022/03/01 02:46:32;;;;;;;4.65;1.45;;;;;;;-2.92;82.41;95203.25;5032425;28;20213;-76
2022/03/01 02:48:59;;;;;;;2.75;2.13;;;;;;;-3.14;83.62;95216.22;5032575;28;20211;-76
2022/03/01 02:51:27;;;;;;;2.95;1.67;;;;;;;-3.17;82.54;95216.69;5032740;28;20208;-76
2022/03/01 02:53:54;;;;;;;2.78;1.80;;;;;;;-3.22;82.11;95209.41;5033411;28;20409;-77
2022/03/01 02:56:23;;;;;;;3.83;2.17;;;;;;;-3.22;81.52;95204.13;5047850;28;20199;-76
2022/03/01 02:58:50;;;;;;;2.20;1.63;;;;;;;-3.06;82.14;95207.16;5045109;28;20232;-76
2022/03/01 03:01:17;;;;;;;2.38;1.13;;;;;;;-2.80;79.86;95205.91;5047073;28;20200;-75
2022/03/01 03:03:45;;;;;;;7.47;1.45;;;;;;;-2.73;79.32;95209.25;5042380;28;20220;-75
2022/03/01 03:06:12;;;;;;;1.02;0.77;;;;;;;-2.64;78.37;95205.22;5053299;28;20409;-76
2022/03/01 03:08:39;;;;;;;3.38;1.85;;;;;;;-2.79;79.00;95200.38;5052679;28;20204;-77
2022/03/01 03:11:07;;;;;;;3.13;2.05;;;;;;;-2.86;78.82;95200.47;5039163;28;20243;-76
2022/03/01 03:13:36;;;;;;;2.97;2.13;;;;;;;-2.78;78.13;95209.94;5052670;28;20215;-76
2022/03/01 03:16:03;;;;;;;0.80;0.80;;;;;;;-2.62;78.65;95208.44;5038735;28;20204;-76
2022/03/01 03:18:31;;;;;;;3.28;1.95;;;;;;;-2.62;79.78;95205.78;5052704;28;20235;-75
2022/03/01 03:20:58;;;;;;;2.20;1.45;;;;;;;-2.52;78.34;95211.31;5049897;28;20721;-76
2022/03/01 03:23:26;;;;;;;0.68;0.68;;;;;;;-2.36;76.97;95210.63;5045626;28;20686;-76
2022/03/01 03:25:54;;;;;;;1.98;1.02;;;;;;;-2.39;76.34;95213.72;5040725;28;20258;-75
2022/03/01 03:28:22;;;;;;;1.17;0.95;;;;;;;-2.33;76.48;95218.13;5052847;28;20208;-75
2022/03/01 03:30:51;;;;;;;0.82;0.55;;;;;;;-2.21;76.12;95213.59;5035165;28;20212;-75
2022/03/01 03:33:17;;;;;;;4.53;3.05;;;;;;;-2.18;75.89;95215.75;5045265;28;20217;-75
2022/03/01 03:35:44;;;;;;;4.22;3.15;;;;;;;-2.13;75.97;95214.25;5034349;28;20638;-75
2022/03/01 03:38:11;;;;;;;4.93;3.63;;;;;;;-2.13;76.73;95220.38;5031365;28;20240;-76
2022/03/01 03:40:38;;;;;;;1.42;0.85;;;;;;;-2.18;76.34;95213.09;5038269;28;20557;-75
2022/03/01 03:43:05;;;;;;;1.25;1.15;;;;;;;-2.22;77.06;95224.44;5039478;28;20215;-75
2022/03/01 03:45:33;;;;;;;3.33;1.42;;;;;;;-2.25;77.05;95211.63;5052452;28;20207;-75
2022/03/01 03:48:01;;;;;;;2.47;1.10;;;;;;;-2.01;75.29;95217.69;5053516;28;20222;-76
2022/03/01 03:50:28;;;;;;;1.40;1.15;;;;;;;-2.11;75.62;95213.00;5033424;28;20243;-76
2022/03/01 03:53:03;;;;;;;2.47;0.98;;;;;;;-2.30;74.58;95217.63;5046762;28;20203;-76
2022/03/01 03:55:30;;;;;;;2.95;1.48;;;;;;;-2.27;75.63;95217.16;5033223;28;20200;-76
2022/03/01 03:57:57;;;;;;;1.33;1.02;;;;;;;-2.34;77.43;95216.50;5045666;28;20714;-76
2022/03/01 04:00:24;;;;;;;6.80;3.00;;;;;;;-2.33;75.84;95212.00;5032459;28;20200;-76
2022/03/01 04:02:52;;;;;;;1.27;0.80;;;;;;;-2.36;76.94;95213.28;5034076;28;20210;-75
2022/03/01 04:05:21;;;;;;;2.20;1.40;;;;;;;-2.33;76.74;95212.00;5044481;28;20200;-75
2022/03/01 04:07:49;;;;;;;1.73;1.02;;;;;;;-2.38;77.11;95215.34;5048127;28;20290;-75
2022/03/01 04:10:18;;;;;;;1.33;1.20;;;;;;;-2.38;76.96;95218.00;5043919;28;20227;-74
2022/03/01 04:12:47;;;;;;;2.65;1.30;;;;;;;-2.42;77.68;95211.53;5034470;28;20209;-77
2022/03/01 04:15:14;;;;;;;2.15;1.15;;;;;;;-2.48;78.54;95215.13;5043415;28;20200;-75
2022/03/01 04:17:42;;;;;;;1.55;1.40;;;;;;;-2.57;78.99;95217.31;5032901;28;20239;-75
2022/03/01 04:20:14;;;;;;;1.45;1.13;;;;;;;-2.54;78.48;95211.53;5042088;28;20234;-77
2022/03/01 04:22:42;;;;;;;1.75;1.15;;;;;;;-2.66;78.68;95213.41;5036795;28;20228;-75
2022/03/01 04:25:13;;;;;;;1.98;0.93;;;;;;;-2.72;78.83;95213.50;5031008;28;20228;-75
2022/03/01 04:27:40;;;;;;;5.60;3.88;;;;;;;-2.73;78.31;95206.59;5051575;28;20238;-75
2022/03/01 04:30:11;;;;;;;9.63;4.70;;;;;;;-2.73;77.99;95214.56;5038784;28;20216;-75
2022/03/01 04:32:38;;;;;;;9.05;5.57;;;;;;;-2.70;78.28;95208.78;5038120;28;20227;-77
2022/03/01 04:35:05;;;;;;;9.07;4.57;;;;;;;-2.75;78.58;95213.97;5051468;28;20257;-77
2022/03/01 04:37:32;;;;;;;14.00;5.88;;;;;;;-2.76;78.64;95212.34;5031327;28;20232;-76
2022/03/01 04:40:01;;;;;;;3.55;1.45;;;;;;;-2.76;78.66;95207.06;5045806;28;20200;-75
2022/03/01 04:42:28;;;;;;;3.30;2.05;;;;;;;-2.87;78.76;95209.44;5052408;28;20290;-76
2022/03/01 04:44:55;;;;;;;4.75;2.53;;;;;;;-2.81;78.55;95212.22;5051665;28;20204;-76
2022/03/01 04:47:22;;;;;;;14.57;3.10;;;;;;;-2.77;79.36;95218.69;5033043;28;20224;-77
2022/03/01 04:49:49;;;;;;;3.13;1.65;;;;;;;-2.83;79.00;95216.94;5046151;28;20206;-75
2022/03/01 04:52:18;;;;;;;3.60;1.00;;;;;;;-2.75;78.17;95227.22;5031946;28;20208;-75
2022/03/01 04:54:48;;;;;;;2.92;1.80;;;;;;;-2.80;79.26;95221.81;5045788;28;20816;-76
2022/03/01 04:57:17;;;;;;;2.78;1.60;;;;;;;-2.93;79.74;95234.25;5031732;28;20582;-76
2022/03/01 04:59:44;;;;;;;4.10;1.83;;;;;;;-2.87;80.06;95225.34;5030681;28;20211;-76
2022/03/01 05:02:11;;;;;;;3.13;1.98;;;;;;;-2.99;79.56;95224.53;5030274;28;20647;-77
2022/03/01 05:04:38;;;;;;;2.22;1.15;;;;;;;-3.10;80.04;95233.28;5031565;28;20232;-76
2022/03/01 05:07:05;;;;;;;1.65;1.33;;;;;;;-3.29;80.41;95231.75;5031195;28;20218;-76
2022/03/01 05:09:33;;;;;;;3.47;1.83;;;;;;;-3.37;80.61;95242.66;5033740;28;20235;-76
2022/03/01 05:12:00;;;;;;;1.35;1.05;;;;;;;-3.46;80.19;95239.53;5049915;28;20268;-76
2022/03/01 05:14:29;;;;;;;4.63;2.22;;;;;;;-3.62;81.16;95240.97;5034525;28;20208;-75
2022/03/01 05:16:56;;;;;;;4.82;2.13;;;;;;;-3.73;81.28;95244.38;5030030;28;20694;-77
2022/03/01 05:19:23;;;;;;;2.08;1.88;;;;;;;-3.78;81.86;95244.22;5047406;28;20317;-76
2022/03/01 05:21:55;;;;;;;2.70;1.98;;;;;;;-3.74;82.15;95242.75;5041012;28;20220;-77
2022/03/01 05:24:22;;;;;;;20.88;9.05;;;;;;;-3.55;82.15;95245.38;5033899;28;20204;-77
2022/03/01 05:26:50;;;;;;;20.27;9.38;;;;;;;-3.35;82.13;95243.25;5030971;28;20703;-77
2022/03/01 05:29:17;;;;;;;18.17;8.55;;;;;;;-2.98;81.56;95239.41;5030331;28;20314;-77
2022/03/01 05:31:46;;;;;;;25.77;10.82;;;;;;;-2.79;80.48;95239.31;5032831;28;20224;-76
2022/03/01 05:34:13;;;;;;;15.70;8.70;;;;;;;-2.58;79.34;95231.59;5035623;28;20204;-77
2022/03/01 05:36:39;;;;;;;11.80;6.43;;;;;;;-2.34;78.43;95237.72;5035689;28;20212;-77
2022/03/01 05:39:07;;;;;;;40.75;17.65;;;;;;;-2.58;78.08;95236.09;5054515;28;20688;-77
2022/03/01 05:41:34;;;;;;;32.20;12.50;;;;;;;-2.61;78.13;95241.88;5054083;28;20199;-76
2022/03/01 05:44:01;;;;;;;12.52;6.95;;;;;;;-2.56;77.58;95248.09;5035036;28;20212;-76
2022/03/01 05:46:28;;;;;;;9.82;5.75;;;;;;;-2.66;77.74;95244.41;5034765;28;20205;-76
2022/03/01 05:48:57;;;;;;;6.95;3.22;;;;;;;-2.52;77.43;95246.59;5054890;28;20239;-76
2022/03/01 05:51:24;;;;;;;7.75;3.25;;;;;;;-2.02;76.61;95245.28;5040717;28;20204;-78
2022/03/01 05:53:53;;;;;;;6.65;2.72;;;;;;;-1.94;76.05;95252.88;5047314;28;20211;-77
2022/03/01 05:56:20;;;;;;;1.95;1.42;;;;;;;-1.19;74.49;95250.06;5049452;28;20200;-78
2022/03/01 05:58:47;;;;;;;3.60;1.90;;;;;;;0.24;70.63;95244.00;5054867;28;20231;-77
2022/03/01 06:01:14;;;;;;;4.40;2.55;;;;;;;1.05;68.29;95233.41;5039132;28;20208;-77
2022/03/01 06:03:41;;;;;;;4.38;2.95;;;;;;;2.27;64.21;95244.94;5033344;28;20263;-77
2022/03/01 06:06:09;;;;;;;21.45;5.60;;;;;;;2.50;61.88;95239.16;5034072;28;20212;-77
2022/03/01 06:08:36;;;;;;;7.15;3.83;;;;;;;3.27;60.86;95240.97;5033578;28;20216;-78
2022/03/01 06:11:03;;;;;;;19.67;6.80;;;;;;;3.84;60.51;95232.63;5036705;28;20578;-77
2022/03/01 06:13:33;;;;;;;13.43;5.72;;;;;;;4.48;57.57;95241.88;5045541;28;20287;-78
2022/03/01 06:16:01;;;;;;;6.72;4.25;;;;;;;4.76;56.03;95238.53;5051016;28;20285;-80
2022/03/01 06:18:28;;;;;;;4.68;2.45;;;;;;;4.41;56.32;95236.78;5044270;28;20239;-80
2022/03/01 06:20:55;;;;;;;10.13;5.00;;;;;;;4.78;56.40;95241.75;5033665;28;20228;-80
2022/03/01 06:23:24;;;;;;;4.72;2.80;;;;;;;4.67;55.96;95240.16;5035130;28;20247;-81
2022/03/01 06:25:51;;;;;;;9.38;4.70;;;;;;;5.05;56.06;95240.53;5033530;28;20243;-80
2022/03/01 06:28:18;;;;;;;9.40;4.68;;;;;;;4.45;56.87;95237.03;5033746;28;20208;-79
2022/03/01 06:30:45;;;;;;;7.28;3.70;;;;;;;4.03;56.62;95234.75;5033577;28;20243;-79
2022/03/01 06:33:12;;;;;;;14.25;4.55;;;;;;;3.76;58.00;95240.41;5033151;28;20212;-78
2022/03/01 06:35:39;;;;;;;6.90;4.20;;;;;;;3.13;60.49;95250.59;5034296;28;20733;-79
2022/03/01 06:38:06;;;;;;;8.27;4.90;;;;;;;2.91;61.35;95249.97;5033211;28;20233;-79
2022/03/01 06:40:35;;;;;;;7.47;3.85;;;;;;;2.71;61.21;95246.19;5039033;28;20654;-80
2022/03/01 06:43:02;;;;;;;5.53;3.00;;;;;;;2.63;60.87;95238.66;5040184;28;20209;-80
2022/03/01 06:45:29;;;;;;;7.85;4.55;;;;;;;3.64;61.03;95229.97;5033151;28;20212;-80
2022/03/01 06:47:56;;;;;;;4.95;2.88;;;;;;;4.39;56.83;95227.41;5033903;28;20234;-79
2022/03/01 06:50:25;;;;;;;3.75;2.65;;;;;;;3.92;57.90;95233.97;5054786;28;20204;-79
2022/03/01 06:52:52;;;;;;;2.10;1.52;;;;;;;3.23;59.59;95237.19;5040915;28;20938;-80
2022/03/01 06:55:21;;;;;;;5.32;2.45;;;;;;;2.71;61.46;95246.19;5034712;28;20208;-80
2022/03/01 06:57:50;;;;;;;6.13;2.72;;;;;;;2.16;63.00;95248.63;5034730;28;20246;-79
2022/03/01 07:00:17;;;;;;;5.22;2.60;;;;;;;2.08;63.82;95244.56;5033681;28;20271;-80
2022/03/01 07:02:44;;;;;;;5.00;2.08;;;;;;;1.89;62.96;95249.56;5046278;28;20228;-80
2022/03/01 07:05:15;;;;;;;2.65;1.85;;;;;;;1.55;65.52;95242.88;5033346;28;20201;-79
2022/03/01 07:07:42;;;;;;;4.25;2.60;;;;;;;1.77;65.73;95244.41;5048843;28;20580;-79
2022/03/01 07:10:12;;;;;;;4.15;1.40;;;;;;;2.28;64.16;95242.00;5044245;28;20208;-79
2022/03/01 07:12:39;;;;;;;1.33;0.98;;;;;;;2.99;61.98;95239.59;5033058;28;20310;-79
2022/03/01 07:15:08;;;;;;;4.28;2.75;;;;;;;3.31;60.60;95239.34;5032732;28;20595;-79
2022/03/01 07:17:36;;;;;;;3.20;2.13;;;;;;;2.77;61.19;95233.63;5032546;28;20228;-81
2022/03/01 07:20:08;;;;;;;5.38;3.03;;;;;;;2.56;62.63;95248.00;5033897;28;20247;-81
2022/03/01 07:22:38;;;;;;;2.17;1.50;;;;;;;2.42;62.13;95258.38;5057015;28;20179;-81
2022/03/01 07:25:07;;;;;;;7.13;3.47;;;;;;;2.87;63.69;95248.91;5061872;28;20208;-81
2022/03/01 07:27:34;;;;;;;2.63;1.95;;;;;;;2.40;62.48;95249.81;5047532;28;20204;-81
2022/03/01 07:30:02;;;;;;;4.47;2.55;;;;;;;2.06;64.47;95250.16;5045726;28;20215;-80
2022/03/01 07:32:30;;;;;;;1.88;1.70;;;;;;;2.01;63.91;95252.03;5047128;28;20247;-81
2022/03/01 07:34:57;;;;;;;4.60;2.80;;;;;;;1.87;66.29;95245.53;5031886;28;20219;-80
2022/03/01 07:37:24;;;;;;;2.17;1.73;;;;;;;1.86;64.82;95249.25;5032717;28;20204;-80
2022/03/01 07:39:53;;;;;;;3.22;2.05;;;;;;;1.88;64.46;95242.59;5032680;28;20255;-79
2022/03/01 07:42:23;;;;;;;5.05;2.75;;;;;;;2.12;63.92;95243.81;5052483;28;20234;-79
2022/03/01 07:44:50;;;;;;;4.18;2.50;;;;;;;1.83;64.92;95247.91;5052107;28;20207;-81
2022/03/01 07:47:17;;;;;;;2.40;1.77;;;;;;;1.67;64.42;95240.84;5038591;28;20235;-82
2022/03/01 07:49:47;;;;;;;2.92;2.00;;;;;;;1.68;65.36;95247.78;5051384;28;20574;-80
2022/03/01 07:52:13;;;;;;;4.97;2.50;;;;;;;1.60;67.94;95242.94;5032472;28;20212;-81
2022/03/01 07:54:40;;;;;;;5.13;2.05;;;;;;;1.63;66.85;95239.75;5032097;28;20212;-83
2022/03/01 07:57:07;;;;;;;6.22;3.05;;;;;;;1.33;67.09;95245.66;5039628;28;20215;-83
2022/03/01 07:59:34;;;;;;;3.47;2.28;;;;;;;1.35;68.51;95249.69;5051090;28;20598;-81
2022/03/01 08:02:02;;;;;;;5.85;2.58;;;;;;;1.49;68.26;95249.25;5033062;28;20213;-82
2022/03/01 08:04:29;;;;;;;2.28;1.52;;;;;;;1.71;67.12;95248.09;5047247;28;20220;-86
2022/03/01 08:06:57;;;;;;;4.03;2.45;;;;;;;1.68;66.86;95250.47;5043595;28;20212;-82
2022/03/01 08:09:24;;;;;;;1.77;1.35;;;;;;;1.73;67.37;95245.16;5047856;28;20559;-81
2022/03/01 08:11:51;;;;;;;6.22;3.42;;;;;;;1.72;66.46;95246.22;5043388;28;20665;-81
2022/03/01 08:14:18;;;;;;;3.15;2.42;;;;;;;1.70;67.41;95251.00;5048284;28;20231;-81
2022/03/01 08:16:45;;;;;;;1.55;1.30;;;;;;;1.61;67.68;95249.88;5052299;28;20231;-80
2022/03/01 08:19:12;;;;;;;5.05;2.88;;;;;;;1.91;66.97;95258.13;5049132;28;20236;-82
2022/03/01 08:21:39;;;;;;;3.60;2.70;;;;;;;2.07;66.50;95262.47;5031924;28;20224;-83
2022/03/01 08:24:08;;;;;;;10.13;4.68;;;;;;;2.28;66.42;95259.91;5046333;28;20193;-80
2022/03/01 08:26:35;;;;;;;7.15;3.28;;;;;;;2.45;66.15;95252.53;5031823;28;20240;-81
2022/03/01 08:29:02;;;;;;;6.00;3.20;;;;;;;1.34;64.99;95261.44;5048996;28;20227;-82
2022/03/01 08:31:29;;;;;;;6.85;2.67;;;;;;;1.05;68.07;95265.41;5041693;28;20224;-80
2022/03/01 08:33:58;;;;;;;2.97;2.05;;;;;;;1.26;69.28;95261.88;5049158;28;20229;-77
2022/03/01 08:36:26;;;;;;;4.20;2.22;;;;;;;1.29;68.51;95264.03;5040798;28;20208;-78
2022/03/01 08:38:53;;;;;;;4.38;2.60;;;;;;;1.71;67.96;95258.78;5031282;28;20626;-80
2022/03/01 08:41:22;;;;;;;4.88;2.22;;;;;;;2.00;65.12;95261.91;5044004;28;20227;-80
2022/03/01 08:43:49;;;;;;;3.63;1.50;;;;;;;1.92;63.85;95256.22;5033849;28;20204;-83
2022/03/01 08:46:17;;;;;;;3.05;2.05;;;;;;;2.04;66.54;95257.66;5044379;28;20210;-80
2022/03/01 08:48:44;;;;;;;3.50;2.03;;;;;;;2.07;64.75;95257.13;5045728;28;20220;-83
2022/03/01 08:51:11;;;;;;;6.63;2.55;;;;;;;2.01;66.06;95258.16;5031140;28;20545;-81
2022/03/01 08:53:39;;;;;;;1.95;1.40;;;;;;;2.04;63.97;95256.84;5032126;28;20553;-79
2022/03/01 08:56:08;;;;;;;4.68;2.42;;;;;;;1.97;64.27;95257.06;5032160;28;20287;-81
2022/03/01 08:58:37;;;;;;;3.92;1.63;;;;;;;2.03;65.65;95272.09;5038335;28;20241;-81
2022/03/01 09:01:04;;;;;;;4.32;2.45;;;;;;;2.04;65.75;95262.19;5052572;28;20216;-82
2022/03/01 09:03:30;;;;;;;21.00;3.60;;;;;;;2.31;65.17;95262.06;5044756;28;20231;-82
2022/03/01 09:05:58;;;;;;;2.45;1.52;;;;;;;2.22;62.73;95253.72;5033385;28;20223;-80
2022/03/01 09:08:25;;;;;;;3.75;2.38;;;;;;;2.49;64.87;95254.38;5042485;28;20290;-80
2022/03/01 09:10:52;;;;;;;2.63;1.42;;;;;;;2.40;63.86;95257.84;5054298;28;20286;-78
2022/03/01 09:13:21;;;;;;;1.25;1.15;;;;;;;2.47;62.28;95255.72;5043736;28;20290;-80
2022/03/01 09:15:49;;;;;;;2.75;1.77;;;;;;;2.76;63.94;95259.56;5054195;28;20203;-80
2022/03/01 09:18:16;;;;;;;1.40;1.08;;;;;;;2.72;62.91;95263.84;5035341;28;20282;-79
2022/03/01 09:20:43;;;;;;;3.10;1.80;;;;;;;2.74;62.90;95269.72;5034136;28;20247;-79
2022/03/01 09:23:10;;;;;;;4.80;1.92;;;;;;;2.91;61.18;95266.03;5053061;28;20502;-79
2022/03/01 09:25:37;;;;;;;2.65;1.95;;;;;;;2.94;62.15;95254.81;5046562;28;20236;-81
2022/03/01 09:28:04;;;;;;;2.88;2.08;;;;;;;3.00;61.16;95265.28;5045448;28;20200;-80
2022/03/01 09:30:32;;;;;;;2.17;1.52;;;;;;;2.93;61.03;95259.34;5038307;28;20230;-82
2022/03/01 09:33:00;;;;;;;4.03;2.25;;;;;;;2.52;61.55;95257.63;5055239;28;20240;-81
2022/03/01 09:35:28;;;;;;;1.90;1.70;;;;;;;2.80;63.59;95259.84;5041781;28;20208;-78
2022/03/01 09:37:56;;;;;;;2.80;1.75;;;;;;;3.03;62.06;95266.59;5044177;28;20204;-80
2022/03/01 09:40:23;;;;;;;3.00;2.45;;;;;;;2.95;61.98;95267.13;5037733;28;20255;-80
2022/03/01 09:42:52;;;;;;;4.15;2.78;;;;;;;3.14;62.33;95261.00;5044475;28;20227;-80
2022/03/01 09:45:19;;;;;;;4.38;1.95;;;;;;;3.48;61.18;95260.50;5034783;28;20303;-81
2022/03/01 09:47:46;;;;;;;3.40;1.60;;;;;;;3.18;61.62;95263.94;5035491;28;20205;-81
2022/03/01 09:50:16;;;;;;;3.85;2.30;;;;;;;3.79;61.05;95261.31;5050043;28;20201;-79
2022/03/01 09:52:44;;;;;;;4.00;2.40;;;;;;;3.85;60.92;95257.53;5036302;28;20204;-79
2022/03/01 09:55:11;;;;;;;6.07;3.15;;;;;;;4.31;60.70;95258.28;5035244;28;20220;-79
2022/03/01 09:57:39;;;;;;;5.65;2.17;;;;;;;4.02;58.72;95250.03;5033804;28;20200;-77
2022/03/01 10:00:08;;;;;;;2.72;1.85;;;;;;;3.61;59.89;95248.47;5033973;28;20250;-81
2022/03/01 10:02:35;;;;;;;2.03;1.30;;;;;;;3.45;59.73;95258.34;5032920;28;20224;-80
2022/03/01 10:05:03;;;;;;;4.05;2.58;;;;;;;3.36;60.18;95251.94;5033853;28;20208;-80
2022/03/01 10:07:32;;;;;;;3.22;1.70;;;;;;;3.27;59.89;95248.19;5047445;28;20222;-80
2022/03/01 10:10:08;;;;;;;2.10;1.60;;;;;;;3.52;60.70;95248.19;5041196;28;20207;-81
2022/03/01 10:12:35;;;;;;;5.97;1.98;;;;;;;3.47;60.46;95238.28;5051637;28;20207;-80
2022/03/01 10:15:06;;;;;;;8.52;1.60;;;;;;;3.25;58.23;95248.44;5032943;28;20212;-81
2022/03/01 10:17:34;;;;;;;2.30;1.55;;;;;;;3.06;60.86;95247.34;5033976;28;20228;-80
2022/03/01 10:20:05;;;;;;;3.55;2.28;;;;;;;3.01;61.19;95250.00;5053526;28;20263;-81
2022/03/01 10:22:34;;;;;;;4.63;3.30;;;;;;;3.14;59.41;95246.84;5053933;28;20203;-80
2022/03/01 10:25:06;;;;;;;6.13;2.63;;;;;;;3.30;61.08;95243.09;5043566;28;20557;-80
2022/03/01 10:27:34;;;;;;;2.63;1.83;;;;;;;3.67;60.11;95234.00;5033617;28;20247;-82
2022/03/01 10:30:01;;;;;;;4.30;2.58;;;;;;;3.30;61.14;95237.72;5044245;28;20618;-81
2022/03/01 10:32:28;;;;;;;6.55;2.70;;;;;;;3.56;59.80;95242.03;5036042;28;20664;-80
2022/03/01 10:35:00;;;;;;;4.45;2.05;;;;;;;3.89;58.45;95234.50;5045725;28;20200;-82
2022/03/01 10:37:27;;;;;;;4.63;2.45;;;;;;;3.73;60.05;95224.88;5053990;28;20705;-82
2022/03/01 10:43:02;;;;;;;5.03;2.67;;;;;;;4.06;58.33;95216.25;5088292;27;20552;-78
2022/03/01 10:45:36;;;;;;;8.38;3.35;;;;;;;4.46;57.20;95214.50;5069023;28;20198;-78
2022/03/01 10:48:04;;;;;;;6.18;3.25;;;;;;;4.65;57.85;95216.28;5082094;28;20350;-79
2022/03/01 10:50:31;;;;;;;6.25;3.28;;;;;;;5.14;56.80;95203.94;5088318;28;20207;-78
2022/03/01 10:52:58;;;;;;;2.63;1.83;;;;;;;4.38;55.85;95209.69;5088056;28;20285;-80
2022/03/01 10:55:27;;;;;;;3.15;2.20;;;;;;;3.85;57.90;95214.66;5088406;28;20202;-79
2022/03/01 10:58:04;;;;;;;5.78;2.78;;;;;;;4.65;56.69;95204.75;5073645;28;20214;-80
2022/03/01 11:00:32;;;;;;;3.42;2.25;;;;;;;4.25;56.27;95201.16;5077561;28;20202;-78
2022/03/01 11:02:58;;;;;;;5.05;3.00;;;;;;;5.03;58.02;95197.03;5068290;28;20703;-78
2022/03/01 11:05:27;;;;;;;3.50;2.38;;;;;;;5.72;55.45;95188.72;5048198;28;20226;-79
2022/03/01 11:07:54;;;;;;;3.53;2.13;;;;;;;5.74;53.75;95191.13;5051741;28;20210;-79
2022/03/01 11:10:23;;;;;;;6.78;2.88;;;;;;;6.13;53.69;95178.38;5067796;28;20207;-79
2022/03/01 11:12:54;;;;;;;5.60;3.20;;;;;;;4.77;54.76;95186.47;5067000;28;20670;-80
2022/03/01 11:15:37;;;;;;;5.32;3.25;;;;;;;4.83;55.66;95188.03;5067946;28;20203;-79
2022/03/01 11:18:23;;;;;;;6.32;3.20;;;;;;;4.75;55.56;95183.25;5067572;28;20784;-78
2022/03/01 11:20:51;;;;;;;4.43;2.25;;;;;;;4.35;57.33;95184.25;5067567;28;20219;-77
2022/03/01 11:23:23;;;;;;;6.60;3.20;;;;;;;4.43;58.78;95182.88;5067836;28;20392;-79
2022/03/01 11:25:50;;;;;;;7.32;3.35;;;;;;;3.66;58.31;95187.66;5067330;28;20519;-78
2022/03/01 11:28:18;;;;;;;2.97;1.95;;;;;;;3.46;57.69;95183.13;5067822;28;20333;-78
2022/03/01 11:30:51;;;;;;;4.53;2.90;;;;;;;3.00;57.47;95176.16;5067517;28;20234;-80
2022/03/01 11:33:25;;;;;;;3.50;2.58;;;;;;;2.82;60.55;95167.56;5067867;28;20203;-80
2022/03/01 11:35:54;;;;;;;3.35;1.98;;;;;;;2.83;58.96;95173.72;5067714;28;20623;-80
2022/03/01 11:38:28;;;;;;;3.30;2.47;;;;;;;3.15;60.91;95173.47;5067148;28;20206;-78
2022/03/01 11:41:11;;;;;;;3.35;2.90;;;;;;;3.53;59.05;95167.59;5066262;28;20235;-79
2022/03/01 11:43:40;;;;;;;5.45;2.65;;;;;;;3.64;60.25;95168.38;5067178;28;20614;-79
2022/03/01 11:46:17;;;;;;;5.82;2.97;;;;;;;3.80;60.11;95155.75;5055745;28;20200;-79